Time;durP1;ratioP1;P1;durP2;ratioP2;P2;SDS_P1;SDS_P2;PMS_P1;PMS_P2;Temp;Humidity;BMP_temperature;BMP_pressure;BME280_temperature;BME280_humidity;BME280_pressure;Samples;Min_cycle;Max_cycle;Signal;HPM_P1;HPM_P2
2021/04/07 00:01:06;;;;;;;4.28;3.85;;;2.20;99.90;;;;;;4921677;29;20218;-86
2021/04/07 00:03:32;;;;;;;4.47;4.00;;;2.20;99.90;;;;;;4920862;29;20299;-85
2021/04/07 00:05:58;;;;;;;4.93;4.45;;;2.20;99.90;;;;;;4924242;29;20683;-86
2021/04/07 00:08:26;;;;;;;4.40;4.00;;;2.20;99.90;;;;;;4923434;29;20203;-85
2021/04/07 00:10:53;;;;;;;4.72;4.32;;;2.20;99.90;;;;;;4924750;29;20294;-86
2021/04/07 00:13:22;;;;;;;5.47;4.82;;;2.20;99.90;;;;;;4920500;29;20238;-85
2021/04/07 00:15:49;;;;;;;4.85;4.00;;;2.20;99.90;;;;;;4920612;29;20211;-85
2021/04/07 00:18:16;;;;;;;8.30;3.85;;;2.30;99.90;;;;;;4920399;29;20211;-85
2021/04/07 00:20:42;;;;;;;5.65;4.68;;;2.30;99.90;;;;;;4923272;29;20210;-85
2021/04/07 00:23:08;;;;;;;4.47;4.07;;;2.30;99.90;;;;;;4937882;29;20223;-85
2021/04/07 00:25:35;;;;;;;5.18;4.78;;;2.30;99.90;;;;;;4926220;29;20242;-84
2021/04/07 00:28:04;;;;;;;4.70;4.30;;;2.20;99.90;;;;;;4924745;29;20210;-85
2021/04/07 00:30:33;;;;;;;5.03;4.53;;;2.30;99.90;;;;;;4929860;29;20226;-86
2021/04/07 00:33:00;;;;;;;4.65;4.25;;;2.30;99.90;;;;;;4921008;29;20231;-85
2021/04/07 00:35:27;;;;;;;5.55;4.32;;;2.20;99.90;;;;;;4922288;29;20206;-85
2021/04/07 00:37:54;;;;;;;4.20;3.60;;;2.20;99.90;;;;;;4922730;29;20210;-85
2021/04/07 00:40:20;;;;;;;7.82;4.97;;;2.20;99.90;;;;;;4922463;29;20229;-86
2021/04/07 00:42:51;;;;;;;4.55;4.20;;;2.20;99.90;;;;;;4924632;29;20226;-85
2021/04/07 00:45:18;;;;;;;5.15;4.72;;;2.30;99.90;;;;;;4921449;29;20570;-85
2021/04/07 00:47:47;;;;;;;4.40;4.00;;;2.20;99.90;;;;;;4922219;29;20241;-85
2021/04/07 00:50:16;;;;;;;3.83;3.53;;;2.20;99.90;;;;;;4921202;29;20211;-85
2021/04/07 00:52:42;;;;;;;5.30;4.38;;;2.30;99.90;;;;;;4921528;29;20219;-85
2021/04/07 00:55:11;;;;;;;4.40;4.00;;;2.30;99.90;;;;;;4922031;29;20217;-84
2021/04/07 00:57:38;;;;;;;4.68;4.28;;;2.40;99.90;;;;;;4923500;29;20210;-85
2021/04/07 01:00:06;;;;;;;4.70;4.30;;;2.30;99.90;;;;;;4940677;29;20194;-85
2021/04/07 01:02:32;;;;;;;4.55;4.15;;;2.30;99.90;;;;;;4924897;29;20239;-85
2021/04/07 01:04:59;;;;;;;5.90;4.95;;;2.30;99.90;;;;;;4939451;29;20187;-85
2021/04/07 01:07:26;;;;;;;5.10;4.68;;;2.30;99.90;;;;;;4937424;29;20194;-84
2021/04/07 01:09:52;;;;;;;4.75;3.70;;;2.30;99.90;;;;;;4936050;29;20207;-85
2021/04/07 01:12:19;;;;;;;3.72;3.30;;;2.30;99.90;;;;;;4931199;29;20239;-86
2021/04/07 01:14:45;;;;;;;4.18;3.72;;;2.30;99.90;;;;;;4926202;29;20233;-86
2021/04/07 01:17:12;;;;;;;5.50;3.88;;;2.20;99.90;;;;;;4937711;29;20193;-84
2021/04/07 01:19:38;;;;;;;5.70;4.15;;;2.10;99.90;;;;;;4937051;29;20233;-84
2021/04/07 01:22:05;;;;;;;5.03;4.55;;;2.10;99.90;;;;;;4941423;29;20190;-85
2021/04/07 01:24:32;;;;;;;5.93;4.75;;;2.10;99.90;;;;;;4923498;29;20227;-85
2021/04/07 01:26:59;;;;;;;5.05;4.55;;;2.00;99.90;;;;;;4925356;29;20648;-85
2021/04/07 01:29:25;;;;;;;5.55;4.88;;;2.00;99.90;;;;;;4925235;29;20207;-86
2021/04/07 01:31:54;;;;;;;6.78;4.45;;;2.00;99.90;;;;;;4922794;29;20231;-86
2021/04/07 01:34:21;;;;;;;5.70;4.57;;;1.90;99.90;;;;;;4923546;29;20245;-86
2021/04/07 01:36:49;;;;;;;8.02;5.10;;;1.90;99.90;;;;;;4924674;29;20792;-85
2021/04/07 01:39:15;;;;;;;7.18;4.80;;;1.90;99.90;;;;;;4928222;29;20577;-86
2021/04/07 01:41:43;;;;;;;8.68;5.00;;;1.80;99.90;;;;;;4937772;29;20206;-85
2021/04/07 01:44:10;;;;;;;5.80;5.28;;;1.70;99.90;;;;;;4927946;29;20231;-85
2021/04/07 01:46:38;;;;;;;6.32;4.45;;;1.60;99.90;;;;;;4927653;29;20232;-86
2021/04/07 01:49:05;;;;;;;5.28;4.65;;;1.60;99.90;;;;;;4927920;29;20679;-86
2021/04/07 01:51:32;;;;;;;6.90;5.70;;;1.60;99.90;;;;;;4925800;29;20708;-86
2021/04/07 01:54:02;;;;;;;4.90;4.40;;;1.50;99.90;;;;;;4926844;29;20233;-86
2021/04/07 01:56:28;;;;;;;5.40;4.90;;;1.50;99.90;;;;;;4931727;29;20214;-86
2021/04/07 01:58:59;;;;;;;7.20;5.80;;;1.40;99.90;;;;;;4934232;29;20234;-86
2021/04/07 02:01:26;;;;;;;6.65;5.10;;;1.30;99.90;;;;;;4923719;29;20604;-86
2021/04/07 02:03:53;;;;;;;4.88;4.38;;;1.40;99.90;;;;;;4928798;29;20695;-85
2021/04/07 02:06:20;;;;;;;5.10;4.55;;;1.50;99.90;;;;;;4929561;29;20207;-86
2021/04/07 02:08:47;;;;;;;5.65;5.10;;;1.50;99.90;;;;;;4931927;29;20221;-86
2021/04/07 02:11:13;;;;;;;5.68;5.10;;;1.50;99.90;;;;;;4930499;29;20286;-85
2021/04/07 02:13:39;;;;;;;5.70;4.65;;;1.40;99.90;;;;;;4927505;29;20226;-86
2021/04/07 02:16:13;;;;;;;10.05;5.32;;;1.40;99.90;;;;;;4926236;29;20207;-86
2021/04/07 02:18:41;;;;;;;6.72;6.05;;;1.40;99.90;;;;;;4926114;29;20209;-86
2021/04/07 02:21:08;;;;;;;6.90;6.30;;;1.40;99.90;;;;;;4926152;29;20213;-85
2021/04/07 02:23:35;;;;;;;7.38;6.28;;;1.40;99.90;;;;;;4926558;29;20234;-86
2021/04/07 02:26:01;;;;;;;6.40;5.32;;;1.40;99.90;;;;;;4927040;29;20632;-86
2021/04/07 02:28:28;;;;;;;6.80;5.85;;;1.40;99.90;;;;;;4925607;29;20266;-86
2021/04/07 02:30:54;;;;;;;6.80;5.80;;;1.40;99.90;;;;;;4928310;29;20226;-86
2021/04/07 02:33:21;;;;;;;7.75;6.18;;;1.40;99.90;;;;;;4931074;29;20230;-86
2021/04/07 02:35:48;;;;;;;6.20;5.65;;;1.40;99.90;;;;;;4926756;29;20233;-86
2021/04/07 02:38:14;;;;;;;7.57;6.35;;;1.40;99.90;;;;;;4927124;29;20199;-86
2021/04/07 02:40:41;;;;;;;9.85;6.97;;;1.40;99.90;;;;;;4937325;29;20210;-85
2021/04/07 02:43:07;;;;;;;10.32;6.40;;;1.30;99.90;;;;;;4931827;29;20226;-86
2021/04/07 02:45:34;;;;;;;7.95;7.22;;;1.30;99.90;;;;;;4935282;29;20314;-87
2021/04/07 02:48:00;;;;;;;16.05;6.80;;;1.40;99.90;;;;;;4942144;29;20186;-85
2021/04/07 02:50:27;;;;;;;8.13;7.10;;;1.40;99.90;;;;;;4943063;29;20238;-85
2021/04/07 02:52:54;;;;;;;6.22;5.63;;;1.40;99.90;;;;;;4941905;29;20229;-86
2021/04/07 02:55:20;;;;;;;9.98;7.03;;;1.40;99.90;;;;;;4932776;29;20203;-86
2021/04/07 02:57:47;;;;;;;9.35;7.07;;;1.40;99.90;;;;;;4942672;29;20262;-85
2021/04/07 03:00:14;;;;;;;7.35;6.65;;;1.50;99.90;;;;;;4941946;29;20259;-85
2021/04/07 03:02:40;;;;;;;7.60;6.63;;;1.50;99.90;;;;;;4941589;29;20223;-85
2021/04/07 03:05:08;;;;;;;7.32;6.55;;;1.50;99.90;;;;;;4939501;29;20213;-84
2021/04/07 03:07:39;;;;;;;7.72;6.93;;;1.60;99.90;;;;;;4917030;29;20236;-85
2021/04/07 03:10:06;;;;;;;8.80;6.75;;;1.60;99.90;;;;;;4913909;29;20234;-85
2021/04/07 03:12:32;;;;;;;7.50;6.80;;;1.60;99.90;;;;;;4918774;29;20229;-86
2021/04/07 03:14:59;;;;;;;7.35;6.65;;;1.60;99.90;;;;;;4917156;29;20594;-85
2021/04/07 03:17:25;;;;;;;7.97;6.53;;;1.70;99.90;;;;;;4931649;29;20214;-85
2021/04/07 03:19:51;;;;;;;7.90;6.25;;;1.70;99.90;;;;;;4929722;29;20209;-85
2021/04/07 03:22:19;;;;;;;7.07;6.38;;;1.70;99.90;;;;;;4927576;29;20207;-85
2021/04/07 03:24:46;;;;;;;7.35;6.65;;;1.80;99.90;;;;;;4932658;29;20214;-85
2021/04/07 03:27:12;;;;;;;8.10;6.47;;;1.90;99.90;;;;;;4927940;29;20194;-84
2021/04/07 03:29:38;;;;;;;8.40;6.72;;;1.90;99.80;;;;;;4929283;29;20223;-86
2021/04/07 03:32:06;;;;;;;10.25;6.38;;;2.00;99.40;;;;;;4931501;29;20372;-87
2021/04/07 03:34:32;;;;;;;9.40;6.03;;;2.00;99.70;;;;;;4928560;29;20713;-86
2021/04/07 03:37:00;;;;;;;6.45;5.88;;;2.00;99.40;;;;;;4930933;29;20218;-86
2021/04/07 03:39:26;;;;;;;7.88;6.05;;;2.00;99.20;;;;;;4923501;29;20207;-84
2021/04/07 03:41:53;;;;;;;6.78;5.63;;;2.00;99.20;;;;;;4927690;29;20205;-85
2021/04/07 03:44:22;;;;;;;6.40;5.80;;;2.00;99.10;;;;;;4932355;29;20241;-85
2021/04/07 03:46:51;;;;;;;5.60;5.03;;;2.00;98.80;;;;;;4927811;29;20690;-86
2021/04/07 03:49:17;;;;;;;6.88;5.55;;;2.00;98.90;;;;;;4928147;29;20211;-85
2021/04/07 03:51:44;;;;;;;6.72;5.65;;;2.00;98.80;;;;;;4929075;29;20225;-87
2021/04/07 03:54:10;;;;;;;8.73;6.25;;;2.00;99.00;;;;;;4932307;29;20223;-85
2021/04/07 03:56:36;;;;;;;7.22;5.50;;;2.00;98.70;;;;;;4930076;29;20210;-85
2021/04/07 03:59:04;;;;;;;5.63;4.97;;;2.00;98.50;;;;;;4928500;29;20207;-86
2021/04/07 04:01:30;;;;;;;8.75;5.82;;;2.00;98.60;;;;;;4929936;29;20262;-86
2021/04/07 04:03:56;;;;;;;5.10;4.65;;;2.10;98.70;;;;;;4928919;29;20908;-87
2021/04/07 04:06:23;;;;;;;5.22;4.72;;;2.10;98.80;;;;;;4927099;29;20210;-86
2021/04/07 04:08:49;;;;;;;6.32;4.53;;;2.10;98.50;;;;;;4932979;29;20210;-86
2021/04/07 04:11:15;;;;;;;5.93;4.78;;;2.00;98.50;;;;;;4931727;29;20233;-86
2021/04/07 04:13:42;;;;;;;6.50;4.55;;;2.10;98.30;;;;;;4931826;29;20226;-86
2021/04/07 04:16:09;;;;;;;8.27;5.00;;;2.00;98.10;;;;;;4935572;29;20195;-85
2021/04/07 04:18:35;;;;;;;8.65;4.50;;;2.00;98.30;;;;;;4938806;29;20234;-86
2021/04/07 04:21:01;;;;;;;4.53;4.13;;;2.00;98.40;;;;;;4938517;29;20788;-85
2021/04/07 04:23:27;;;;;;;10.82;5.00;;;2.00;98.00;;;;;;4933438;29;20228;-85
2021/04/07 04:25:54;;;;;;;6.22;4.30;;;2.00;97.70;;;;;;4923200;29;20209;-84
2021/04/07 04:28:20;;;;;;;6.97;4.43;;;2.00;97.60;;;;;;4923342;29;20209;-85
2021/04/07 04:30:46;;;;;;;5.18;4.65;;;2.00;97.50;;;;;;4927142;29;20245;-85
2021/04/07 04:33:13;;;;;;;6.43;4.50;;;2.00;97.30;;;;;;4931041;29;20711;-86
2021/04/07 04:35:40;;;;;;;6.25;3.38;;;2.00;97.20;;;;;;4933161;29;20218;-84
2021/04/07 04:38:06;;;;;;;6.00;4.35;;;2.00;97.10;;;;;;4931959;29;20199;-86
2021/04/07 04:40:32;;;;;;;5.25;4.63;;;2.00;96.90;;;;;;4942351;29;20266;-85
2021/04/07 04:42:59;;;;;;;7.20;4.40;;;1.90;96.40;;;;;;4939410;29;20225;-86
2021/04/07 04:45:25;;;;;;;5.45;4.30;;;1.90;96.90;;;;;;4946201;28;20191;-84
2021/04/07 04:47:52;;;;;;;6.30;4.50;;;1.90;96.80;;;;;;4949271;28;20201;-85
2021/04/07 04:50:20;;;;;;;5.25;4.75;;;1.90;96.80;;;;;;4948993;28;20275;-85
2021/04/07 04:52:46;;;;;;;5.55;4.97;;;2.00;96.80;;;;;;4942176;29;20226;-86
2021/04/07 04:55:13;;;;;;;5.82;4.30;;;2.10;96.70;;;;;;4938340;29;20207;-86
2021/04/07 04:57:40;;;;;;;5.57;4.50;;;2.10;96.20;;;;;;4941092;29;20218;-85
2021/04/07 05:00:08;;;;;;;6.47;3.40;;;2.10;96.20;;;;;;4940981;29;20210;-85
2021/04/07 05:02:35;;;;;;;6.30;4.35;;;2.10;95.50;;;;;;4938830;29;20213;-85
2021/04/07 05:05:02;;;;;;;4.50;3.55;;;2.20;95.80;;;;;;4940640;29;20202;-85
2021/04/07 05:07:29;;;;;;;5.05;3.88;;;2.10;95.70;;;;;;4936037;29;20206;-86
2021/04/07 05:09:55;;;;;;;6.28;3.90;;;2.10;95.60;;;;;;4937342;29;20203;-84
2021/04/07 05:12:22;;;;;;;8.98;4.68;;;2.20;95.50;;;;;;4942541;29;20322;-83
2021/04/07 05:14:50;;;;;;;4.10;3.80;;;2.10;95.60;;;;;;4937568;29;20685;-85
2021/04/07 05:17:16;;;;;;;4.90;4.35;;;2.20;95.70;;;;;;4931794;29;20579;-85
2021/04/07 05:19:43;;;;;;;6.28;4.00;;;2.20;95.80;;;;;;4934463;29;20198;-87
2021/04/07 05:22:10;;;;;;;5.97;3.80;;;2.20;95.60;;;;;;4937781;29;20186;-83
2021/04/07 05:24:37;;;;;;;10.75;4.13;;;2.30;95.60;;;;;;4937068;28;20286;-85
2021/04/07 05:27:05;;;;;;;4.18;3.40;;;2.20;94.80;;;;;;4934754;29;20207;-85
2021/04/07 05:29:31;;;;;;;5.97;3.90;;;2.20;94.70;;;;;;4942148;29;20285;-85
2021/04/07 05:31:59;;;;;;;5.50;3.75;;;2.20;94.60;;;;;;4933529;29;20223;-84
2021/04/07 05:34:25;;;;;;;5.50;4.65;;;2.30;94.60;;;;;;4934266;29;20226;-85
2021/04/07 05:36:53;;;;;;;5.25;3.88;;;2.30;94.50;;;;;;4930290;29;20241;-84
2021/04/07 05:39:19;;;;;;;7.57;4.05;;;2.30;94.50;;;;;;4923796;29;20289;-84
2021/04/07 05:41:51;;;;;;;8.55;4.00;;;2.40;94.70;;;;;;4927233;29;20199;-84
2021/04/07 05:44:20;;;;;;;11.63;4.43;;;2.40;94.40;;;;;;4934564;29;20233;-84
2021/04/07 05:46:48;;;;;;;6.57;3.85;;;2.50;94.40;;;;;;4923740;29;20238;-85
2021/04/07 05:49:14;;;;;;;3.70;3.40;;;2.50;94.00;;;;;;4925389;29;20198;-84
2021/04/07 05:51:41;;;;;;;6.15;4.55;;;2.60;93.90;;;;;;4924096;29;20222;-86
2021/04/07 05:54:07;;;;;;;4.60;4.07;;;2.60;93.70;;;;;;4938374;29;20227;-84
2021/04/07 05:56:35;;;;;;;5.32;3.75;;;2.60;93.30;;;;;;4940668;29;20206;-86
2021/04/07 05:59:03;;;;;;;8.52;4.63;;;2.70;93.10;;;;;;4940571;29;20725;-83
2021/04/07 06:01:31;;;;;;;5.80;4.10;;;2.70;92.70;;;;;;4928918;29;20682;-84
2021/04/07 06:03:58;;;;;;;6.65;3.95;;;2.70;92.40;;;;;;4926186;29;20254;-84
2021/04/07 06:06:25;;;;;;;6.60;4.60;;;2.80;92.00;;;;;;4926508;29;20207;-84
2021/04/07 06:08:52;;;;;;;4.60;3.50;;;2.80;92.00;;;;;;4926966;29;20198;-84
2021/04/07 06:11:20;;;;;;;6.70;4.40;;;2.80;91.70;;;;;;4924435;29;20218;-85
2021/04/07 06:13:51;;;;;;;10.13;4.78;;;2.80;91.50;;;;;;4926369;29;20226;-85
2021/04/07 06:16:25;;;;;;;5.15;3.65;;;2.80;91.20;;;;;;4925015;29;20258;-85
2021/04/07 06:18:53;;;;;;;5.13;4.43;;;2.90;90.90;;;;;;4923262;29;20208;-86
2021/04/07 06:21:21;;;;;;;6.90;3.70;;;2.90;90.50;;;;;;4936656;23;20235;-84
2021/04/07 06:23:47;;;;;;;9.38;3.85;;;3.00;90.30;;;;;;4939559;29;20220;-84
2021/04/07 06:26:14;;;;;;;7.10;3.05;;;3.10;90.20;;;;;;4932518;29;20203;-82
2021/04/07 06:28:40;;;;;;;5.13;4.05;;;3.20;90.20;;;;;;4934556;29;20274;-83
2021/04/07 06:31:06;;;;;;;7.15;3.70;;;3.30;89.20;;;;;;4918283;29;20244;-83
2021/04/07 06:33:34;;;;;;;5.72;3.42;;;3.40;88.20;;;;;;4917486;29;20214;-83
2021/04/07 06:36:03;;;;;;;7.88;2.70;;;3.50;87.50;;;;;;4914844;29;20203;-82
2021/04/07 06:38:31;;;;;;;8.52;3.70;;;3.60;87.10;;;;;;4912096;29;20219;-81
2021/04/07 06:40:58;;;;;;;5.50;3.30;;;3.90;86.50;;;;;;4931030;29;20208;-83
2021/04/07 06:43:28;;;;;;;4.32;3.00;;;4.30;83.80;;;;;;4929466;29;20199;-82
2021/04/07 06:45:55;;;;;;;5.15;3.00;;;4.60;81.70;;;;;;4929811;29;20269;-83
2021/04/07 06:48:22;;;;;;;7.53;3.53;;;4.90;80.30;;;;;;4941669;29;20189;-82
2021/04/07 06:50:53;;;;;;;4.45;2.88;;;5.00;80.10;;;;;;4936229;29;20472;-83
2021/04/07 06:53:23;;;;;;;8.02;3.58;;;5.00;78.10;;;;;;4930911;29;20205;-83
2021/04/07 06:55:49;;;;;;;8.07;2.90;;;5.00;77.20;;;;;;4925585;29;20209;-83
2021/04/07 06:58:15;;;;;;;3.42;3.00;;;5.00;76.90;;;;;;4920498;29;20468;-83
2021/04/07 07:00:42;;;;;;;5.32;3.20;;;5.00;76.30;;;;;;4926880;29;20310;-83
2021/04/07 07:03:10;;;;;;;7.60;2.95;;;5.40;75.70;;;;;;4940319;29;20274;-83
2021/04/07 07:05:38;;;;;;;7.88;3.63;;;5.60;73.70;;;;;;4928349;29;20210;-83
2021/04/07 07:08:08;;;;;;;5.72;3.20;;;5.60;72.80;;;;;;4931036;29;20209;-83
2021/04/07 07:10:40;;;;;;;5.88;2.60;;;5.30;71.90;;;;;;4921820;29;20255;-83
2021/04/07 07:13:08;;;;;;;6.75;2.92;;;5.00;72.20;;;;;;4926400;29;20196;-83
2021/04/07 07:15:35;;;;;;;4.18;2.58;;;5.00;73.00;;;;;;4926285;29;20682;-81
2021/04/07 07:18:02;;;;;;;7.75;2.60;;;5.00;72.60;;;;;;4926305;29;20667;-82
2021/04/07 07:20:30;;;;;;;7.65;3.65;;;5.10;72.30;;;;;;4918977;29;20240;-83
2021/04/07 07:22:56;;;;;;;4.00;2.67;;;5.00;71.50;;;;;;4918670;29;20222;-83
2021/04/07 07:25:25;;;;;;;3.95;2.28;;;4.80;72.00;;;;;;4935481;29;20280;-82
2021/04/07 07:27:58;;;;;;;4.45;2.35;;;4.70;72.00;;;;;;4939366;28;20204;-83
2021/04/07 07:30:33;;;;;;;4.60;2.25;;;4.50;71.60;;;;;;4927099;29;20773;-82
2021/04/07 07:32:59;;;;;;;2.92;2.20;;;4.60;71.40;;;;;;4927493;29;20238;-83
2021/04/07 07:35:25;;;;;;;8.32;2.78;;;4.80;71.00;;;;;;4929707;29;20211;-83
2021/04/07 07:38:00;;;;;;;6.15;2.42;;;5.00;70.50;;;;;;4922381;29;20199;-82
2021/04/07 07:40:27;;;;;;;5.40;3.35;;;5.20;70.80;;;;;;4926019;29;20225;-82
2021/04/07 07:42:54;;;;;;;4.43;2.40;;;5.20;70.30;;;;;;4924265;29;20211;-83
2021/04/07 07:45:29;;;;;;;2.60;2.05;;;5.30;69.40;;;;;;4920461;29;20215;-83
2021/04/07 07:48:10;;;;;;;4.53;2.50;;;5.30;68.60;;;;;;4909231;29;20208;-84
2021/04/07 07:50:40;;;;;;;4.40;2.33;;;5.40;68.10;;;;;;4916675;29;20234;-83
2021/04/07 07:53:17;;;;;;;4.43;2.05;;;5.30;67.50;;;;;;4910541;29;20225;-83
2021/04/07 07:55:45;;;;;;;4.25;2.63;;;5.20;67.60;;;;;;4916792;29;20236;-83
2021/04/07 07:58:12;;;;;;;5.97;2.60;;;5.10;68.40;;;;;;4915896;29;20575;-83
2021/04/07 08:00:38;;;;;;;3.33;2.28;;;5.00;69.20;;;;;;4920557;29;20232;-83
2021/04/07 08:03:09;;;;;;;4.70;2.72;;;5.00;70.30;;;;;;4922861;29;20200;-83
2021/04/07 08:05:37;;;;;;;4.68;2.53;;;4.90;70.30;;;;;;4921525;29;20210;-83
2021/04/07 08:08:04;;;;;;;2.83;2.40;;;4.80;70.20;;;;;;4909618;29;20211;-84
2021/04/07 08:10:32;;;;;;;6.10;3.35;;;4.90;71.70;;;;;;4900604;29;20232;-83
2021/04/07 08:13:01;;;;;;;4.70;2.58;;;5.10;71.20;;;;;;4899989;29;20225;-83
2021/04/07 08:15:28;;;;;;;6.18;2.90;;;5.20;71.10;;;;;;4904883;29;20216;-83
2021/04/07 08:17:54;;;;;;;4.20;2.17;;;5.30;69.20;;;;;;4921700;29;20207;-83
2021/04/07 08:20:22;;;;;;;3.47;1.95;;;5.20;68.00;;;;;;4902772;29;20248;-83
2021/04/07 08:22:50;;;;;;;3.92;2.53;;;5.20;67.70;;;;;;4916875;29;20211;-83
2021/04/07 08:25:18;;;;;;;3.22;2.80;;;5.50;67.50;;;;;;4919315;29;20210;-83
2021/04/07 08:27:44;;;;;;;6.10;2.40;;;5.70;66.50;;;;;;4932463;29;20204;-83
2021/04/07 08:30:13;;;;;;;3.70;2.10;;;6.00;66.20;;;;;;4937018;29;20527;-83
2021/04/07 08:32:40;;;;;;;5.93;2.50;;;6.00;65.20;;;;;;4925570;29;20493;-83
2021/04/07 08:35:07;;;;;;;4.43;2.33;;;6.10;65.70;;;;;;4912385;29;20505;-83
2021/04/07 08:37:33;;;;;;;3.80;2.60;;;6.30;66.20;;;;;;4901076;29;20459;-84
2021/04/07 08:40:10;;;;;;;6.83;3.33;;;7.10;65.30;;;;;;4908085;29;20447;-83
2021/04/07 08:42:37;;;;;;;3.03;1.80;;;7.60;63.90;;;;;;4906962;29;20510;-84
2021/04/07 08:45:07;;;;;;;4.27;2.27;;;7.70;61.50;;;;;;4919553;29;20547;-84
2021/04/07 08:47:42;;;;;;;4.13;2.37;;;7.50;61.60;;;;;;4938303;29;20496;-82
2021/04/07 08:50:10;;;;;;;4.17;2.07;;;7.20;62.20;;;;;;4934734;29;20455;-84
2021/04/07 08:52:43;;;;;;;3.37;2.20;;;6.80;63.10;;;;;;4920592;29;20484;-83
2021/04/07 08:55:16;;;;;;;5.30;2.33;;;6.70;64.00;;;;;;4918225;29;20454;-83
2021/04/07 08:57:42;;;;;;;7.53;3.30;;;7.10;64.30;;;;;;4916746;29;20477;-83
2021/04/07 09:00:14;;;;;;;5.10;2.97;;;7.40;62.40;;;;;;4909614;29;20835;-84
2021/04/07 09:02:52;;;;;;;4.27;2.00;;;7.60;61.70;;;;;;4909339;29;20458;-84
2021/04/07 09:05:28;;;;;;;3.23;2.10;;;8.00;59.70;;;;;;4937152;29;20541;-83
2021/04/07 09:07:57;;;;;;;2.57;2.37;;;8.00;59.20;;;;;;4927118;29;20801;-84
2021/04/07 09:10:24;;;;;;;3.80;2.50;;;7.60;59.60;;;;;;4937410;29;20497;-84
2021/04/07 09:12:52;;;;;;;6.60;3.13;;;7.10;61.10;;;;;;4934721;29;20497;-81
2021/04/07 09:15:21;;;;;;;4.80;3.13;;;6.80;62.90;;;;;;4919704;29;20466;-83
2021/04/07 09:17:50;;;;;;;3.97;3.07;;;6.50;65.40;;;;;;4918651;29;20550;-84
2021/04/07 09:20:36;;;;;;;5.60;2.90;;;6.40;68.20;;;;;;4912054;29;20538;-83
2021/04/07 09:23:12;;;;;;;4.60;2.10;;;6.10;72.00;;;;;;4926724;29;20458;-84
2021/04/07 09:25:43;;;;;;;3.07;2.37;;;6.10;70.80;;;;;;4920875;29;20844;-83
2021/04/07 09:28:11;;;;;;;4.90;2.70;;;6.10;69.20;;;;;;4919893;29;20943;-84
2021/04/07 09:30:45;;;;;;;3.20;2.93;;;6.10;69.70;;;;;;4924392;29;20505;-84
2021/04/07 09:33:15;;;;;;;4.67;2.93;;;6.10;69.70;;;;;;4921878;29;20488;-85
2021/04/07 09:35:58;;;;;;;7.73;3.47;;;6.40;69.80;;;;;;4922760;29;20464;-86
2021/04/07 09:38:26;;;;;;;3.23;2.93;;;6.80;70.40;;;;;;4922210;29;21103;-85
2021/04/07 09:41:02;;;;;;;3.77;3.03;;;7.30;67.50;;;;;;4922645;29;20477;-85
2021/04/07 09:43:29;;;;;;;3.53;2.77;;;7.60;65.70;;;;;;4915657;29;20454;-85
2021/04/07 09:45:56;;;;;;;3.70;2.67;;;7.90;63.80;;;;;;4907607;29;20522;-85
2021/04/07 09:48:33;;;;;;;3.80;2.53;;;8.00;62.50;;;;;;4923278;29;20462;-86
2021/04/07 09:50:59;;;;;;;6.33;3.33;;;8.20;60.60;;;;;;4922889;29;20478;-85
2021/04/07 09:53:28;;;;;;;2.83;2.50;;;8.20;60.00;;;;;;4915115;29;20456;-85
2021/04/07 09:56:01;;;;;;;4.30;2.70;;;8.70;59.40;;;;;;4904362;29;20485;-86
2021/04/07 09:58:27;;;;;;;3.80;3.00;;;9.80;57.90;;;;;;4904288;29;20454;-85
2021/04/07 10:00:55;;;;;;;5.23;3.00;;;10.40;54.90;;;;;;4904345;29;20981;-86
2021/04/07 10:03:22;;;;;;;5.17;3.33;;;10.60;52.80;;;;;;4923571;29;20454;-86
2021/04/07 10:05:48;;;;;;;4.03;2.37;;;10.80;51.70;;;;;;4936996;29;20470;-86
2021/04/07 10:08:16;;;;;;;4.93;3.40;;;11.10;54.00;;;;;;4939127;29;20451;-85
2021/04/07 10:10:42;;;;;;;7.50;5.47;;;10.90;52.60;;;;;;4938678;29;20469;-85
2021/04/07 10:13:09;;;;;;;7.07;3.80;;;10.40;53.60;;;;;;4922586;29;20487;-86
2021/04/07 10:15:37;;;;;;;5.30;2.57;;;10.30;53.00;;;;;;4912805;29;20459;-86
2021/04/07 10:18:07;;;;;;;3.00;2.20;;;9.80;52.70;;;;;;4903714;29;20460;-85
2021/04/07 10:20:35;;;;;;;3.97;2.97;;;9.40;52.50;;;;;;4903188;29;20543;-86
2021/04/07 10:23:07;;;;;;;3.50;2.50;;;9.20;54.00;;;;;;4910815;29;20475;-85
2021/04/07 10:25:34;;;;;;;3.90;2.10;;;8.30;54.60;;;;;;4909820;29;20507;-85
2021/04/07 10:28:03;;;;;;;7.40;2.80;;;7.90;56.30;;;;;;4912874;29;20443;-88
2021/04/07 10:30:40;;;;;;;3.63;3.30;;;7.70;57.90;;;;;;4922672;29;20478;-88
2021/04/07 10:33:06;;;;;;;5.90;4.10;;;7.40;58.70;;;;;;4920288;29;20482;-88
2021/04/07 10:35:36;;;;;;;5.70;3.17;;;7.20;60.70;;;;;;4923641;29;20458;-85
2021/04/07 10:38:04;;;;;;;3.40;3.10;;;7.10;61.30;;;;;;4922004;29;20522;-85
2021/04/07 10:40:33;;;;;;;7.73;3.63;;;7.10;60.90;;;;;;4922544;29;20902;-85
2021/04/07 10:43:12;;;;;;;49.80;43.50;;;7.20;61.60;;;;;;4908877;29;20456;-85
2021/04/07 10:45:39;;;;;;;5.63;3.50;;;7.40;60.90;;;;;;4902690;29;20458;-86
2021/04/07 10:48:06;;;;;;;6.80;4.27;;;7.20;60.30;;;;;;4908204;29;20458;-87
2021/04/07 10:50:36;;;;;;;2.87;2.57;;;7.50;60.00;;;;;;4921249;29;20533;-85
2021/04/07 10:53:03;;;;;;;4.63;3.27;;;7.20;59.60;;;;;;4919623;29;20487;-85
2021/04/07 10:55:33;;;;;;;6.47;3.10;;;7.20;60.20;;;;;;4920269;29;20454;-85
2021/04/07 10:58:00;;;;;;;7.20;3.07;;;7.50;59.90;;;;;;4934759;29;20467;-85
2021/04/07 11:00:29;;;;;;;3.33;2.53;;;7.90;58.90;;;;;;4939440;29;20542;-85
2021/04/07 11:02:56;;;;;;;10.07;3.87;;;8.30;57.80;;;;;;4936833;29;20475;-85
2021/04/07 11:05:24;;;;;;;7.93;2.53;;;8.90;56.70;;;;;;4923087;29;20540;-86
2021/04/07 11:08:01;;;;;;;6.57;2.77;;;9.90;55.40;;;;;;4920422;29;20446;-85
2021/04/07 11:10:27;;;;;;;2.70;2.00;;;10.70;53.20;;;;;;4934882;29;20458;-85
2021/04/07 11:12:54;;;;;;;3.10;2.00;;;10.50;50.90;;;;;;4940005;29;20494;-85
2021/04/07 11:15:24;;;;;;;4.90;2.17;;;9.70;50.90;;;;;;4923807;29;20461;-85
2021/04/07 11:17:51;;;;;;;3.83;2.80;;;9.40;51.10;;;;;;4934455;29;20462;-85
2021/04/07 11:20:18;;;;;;;3.37;1.87;;;9.90;52.20;;;;;;4930508;29;20517;-85
2021/04/07 11:22:44;;;;;;;6.53;2.30;;;10.30;50.60;;;;;;4921828;29;20446;-84
2021/04/07 11:25:12;;;;;;;3.80;1.90;;;10.60;50.40;;;;;;4921017;29;20450;-85
2021/04/07 11:27:38;;;;;;;3.57;2.30;;;9.70;49.90;;;;;;4920629;29;20501;-85
2021/04/07 11:30:06;;;;;;;4.13;2.00;;;9.20;51.10;;;;;;4902607;29;20462;-85
2021/04/07 11:32:34;;;;;;;3.47;2.60;;;9.00;51.10;;;;;;4908291;29;20474;-84
2021/04/07 11:35:03;;;;;;;14.90;5.57;;;9.30;51.70;;;;;;4917258;29;20475;-85
2021/04/07 11:37:37;;;;;;;3.67;2.23;;;9.60;51.30;;;;;;4908105;29;20463;-86
2021/04/07 11:40:07;;;;;;;7.27;2.20;;;9.20;50.00;;;;;;4916796;29;20455;-84
2021/04/07 11:42:45;;;;;;;4.80;2.70;;;8.90;50.00;;;;;;4931075;29;20451;-85
2021/04/07 11:45:13;;;;;;;4.37;2.10;;;9.10;50.80;;;;;;4929252;29;20519;-85
2021/04/07 11:47:40;;;;;;;4.17;2.40;;;9.10;48.80;;;;;;4935846;29;20504;-85
2021/04/07 11:50:07;;;;;;;6.00;2.47;;;10.00;47.40;;;;;;4931646;29;20486;-85
2021/04/07 11:52:34;;;;;;;3.73;2.10;;;11.70;47.50;;;;;;4919755;29;20975;-86
2021/04/07 11:55:00;;;;;;;5.70;2.00;;;11.10;43.20;;;;;;4921280;29;20454;-85
2021/04/07 11:57:26;;;;;;;5.90;2.70;;;9.90;45.70;;;;;;4920739;29;20506;-86
2021/04/07 11:59:54;;;;;;;5.60;3.70;;;9.70;46.90;;;;;;4919234;29;20459;-86
2021/04/07 12:02:20;;;;;;;6.67;2.90;;;9.20;46.80;;;;;;4919540;29;20457;-85
2021/04/07 12:04:47;;;;;;;3.77;2.30;;;8.30;46.70;;;;;;4921157;29;20465;-86
2021/04/07 12:07:14;;;;;;;4.13;2.73;;;7.80;48.20;;;;;;4920746;29;20458;-85
2021/04/07 12:09:46;;;;;;;5.60;3.03;;;7.60;49.40;;;;;;4919459;29;20461;-85
2021/04/07 12:12:15;;;;;;;5.10;3.07;;;7.70;50.60;;;;;;4918531;29;20477;-85
2021/04/07 12:14:41;;;;;;;4.23;2.30;;;7.60;50.70;;;;;;4916829;29;20438;-85
2021/04/07 12:17:08;;;;;;;5.30;1.90;;;7.50;50.50;;;;;;4940074;29;20799;-85
2021/04/07 12:19:35;;;;;;;9.30;3.40;;;7.40;51.60;;;;;;4934205;29;20579;-85
2021/04/07 12:22:01;;;;;;;5.20;2.70;;;7.50;52.50;;;;;;4937150;29;20473;-85
2021/04/07 12:24:28;;;;;;;5.33;2.43;;;7.60;52.60;;;;;;4933830;29;20514;-85
2021/04/07 12:26:55;;;;;;;3.47;2.53;;;7.40;53.60;;;;;;4937233;29;20452;-85
2021/04/07 12:29:21;;;;;;;4.67;2.60;;;7.30;54.20;;;;;;4922044;29;20537;-86
2021/04/07 12:31:48;;;;;;;9.53;2.87;;;7.60;54.80;;;;;;4932787;29;20482;-85
2021/04/07 12:34:15;;;;;;;5.20;3.43;;;7.90;54.80;;;;;;4928277;29;20453;-85
2021/04/07 12:36:42;;;;;;;8.93;3.53;;;7.60;54.40;;;;;;4939652;29;20541;-85
2021/04/07 12:39:11;;;;;;;4.20;3.10;;;7.80;55.80;;;;;;4941163;29;20446;-85
2021/04/07 12:41:48;;;;;;;4.27;2.77;;;8.40;55.10;;;;;;4932177;29;20470;-85
2021/04/07 12:44:15;;;;;;;4.30;2.73;;;8.60;53.40;;;;;;4933681;29;20454;-85
2021/04/07 12:46:42;;;;;;;8.70;2.80;;;8.90;53.10;;;;;;4941517;29;20501;-85
2021/04/07 12:49:09;;;;;;;4.63;2.47;;;8.90;52.90;;;;;;4943997;29;20542;-85
2021/04/07 12:51:37;;;;;;;6.80;2.50;;;9.10;53.30;;;;;;4944573;29;20466;-83
2021/04/07 12:54:05;;;;;;;4.37;2.30;;;9.20;52.30;;;;;;4937737;29;20489;-84
2021/04/07 12:56:31;;;;;;;5.60;2.10;;;9.00;51.80;;;;;;4926640;29;20526;-85
2021/04/07 12:59:00;;;;;;;3.03;2.20;;;8.80;51.80;;;;;;4929867;29;20450;-85